Time;durP1;ratioP1;P1;durP2;ratioP2;P2;SDS_P1;SDS_P2;PMS_P1;PMS_P2;Temp;Humidity;BMP_temperature;BMP_pressure;BME280_temperature;BME280_humidity;BME280_pressure;Samples;Min_cycle;Max_cycle;Signal;HPM_P1;HPM_P2
2022/05/30 00:00:14;;;;;;;;;;;;;;;;;;5093215;28;960;-70
2022/05/30 00:02:40;;;;;;;;;;;;;;;;;;5093147;28;1072;-69
2022/05/30 00:05:07;;;;;;;;;;;;;;;;;;5092990;28;1301;-70
2022/05/30 00:07:33;;;;;;;;;;;;;;;;;;5074519;28;1163;-70
2022/05/30 00:09:59;;;;;;;;;;;;;;;;;;5074587;28;1989;-70
2022/05/30 00:12:25;;;;;;;;;;;;;;;;;;5074586;28;1144;-70
2022/05/30 00:14:53;;;;;;;;;;;;;;;;;;5092457;28;1313;-70
2022/05/30 00:17:19;;;;;;;;;;;;;;;;;;5092326;28;1075;-69
2022/05/30 00:19:45;;;;;;;;;;;;;;;;;;5074503;28;1304;-70
2022/05/30 00:22:14;;;;;;;;;;;;;;;;;;5092786;28;1012;-70
2022/05/30 00:24:40;;;;;;;;;;;;;;;;;;5091736;28;1487;-69
2022/05/30 00:27:06;;;;;;;;;;;;;;;;;;5092437;28;691;-69
2022/05/30 00:29:33;;;;;;;;;;;;;;;;;;5092637;28;849;-70
2022/05/30 00:32:01;;;;;;;;;;;;;;;;;;5074220;28;1985;-69
2022/05/30 00:34:27;;;;;;;;;;;;;;;;;;5074378;28;1309;-69
2022/05/30 00:36:53;;;;;;;;;;;;;;;;;;5074229;28;1084;-69
2022/05/30 00:39:19;;;;;;;;;;;;;;;;;;5074259;28;1177;-70
2022/05/30 00:41:45;;;;;;;;;;;;;;;;;;5092623;28;870;-69
2022/05/30 00:44:12;;;;;;;;;;;;;;;;;;5074173;28;1387;-69
2022/05/30 00:46:38;;;;;;;;;;;;;;;;;;5073990;28;1183;-70
2022/05/30 00:49:06;;;;;;;;;;;;;;;;;;5092136;28;953;-70
2022/05/30 00:51:34;;;;;;;;;;;;;;;;;;5074003;28;1917;-70
2022/05/30 00:54:00;;;;;;;;;;;;;;;;;;5092373;28;1086;-69
2022/05/30 00:56:28;;;;;;;;;;;;;;;;;;5091718;28;1337;-69
2022/05/30 00:58:54;;;;;;;;;;;;;;;;;;5092240;28;766;-70
2022/05/30 01:01:21;;;;;;;;;;;;;;;;;;5073902;28;1126;-69
2022/05/30 01:06:35;;;;;;;;;;;;;;;;;;5091505;28;1063;-69
2022/05/30 01:09:02;;;;;;;;;;;;;;;;;;5073524;28;1747;-70
2022/05/30 01:11:43;;;;;;;;;;;;;;;;;;5072980;28;1910;-70
2022/05/30 01:14:10;;;;;;;;;;;;;;;;;;5073100;28;1839;-70
2022/05/30 01:16:36;;;;;;;;;;;;;;;;;;5073321;28;1183;-69
2022/05/30 01:19:02;;;;;;;;;;;;;;;;;;5073477;28;1211;-69
2022/05/30 01:21:42;;;;;;;;;;;;;;;;;;5073341;28;1193;-70
2022/05/30 01:24:14;;;;;;;;;;;;;;;;;;5073040;28;1321;-70
2022/05/30 01:27:07;;;;;;;;;;;;;;;;;;5073028;28;1204;-70
2022/05/30 01:29:36;;;;;;;;;;;;;;;;;;5072900;28;1232;-69
2022/05/30 01:32:02;;;;;;;;;;;;;;;;;;5091366;28;1977;-70
2022/05/30 01:34:28;;;;;;;;;;;;;;;;;;5091317;28;1309;-69
2022/05/30 01:36:55;;;;;;;;;;;;;;;;;;5072672;28;1673;-70
2022/05/30 01:39:26;;;;;;;;;;;;;;;;;;5072827;28;1042;-70
2022/05/30 01:41:53;;;;;;;;;;;;;;;;;;5072918;28;1383;-69
2022/05/30 01:44:19;;;;;;;;;;;;;;;;;;5073027;28;1384;-70
2022/05/30 01:46:47;;;;;;;;;;;;;;;;;;5090763;28;905;-70
2022/05/30 01:49:13;;;;;;;;;;;;;;;;;;5072917;28;1155;-69
2022/05/30 01:51:40;;;;;;;;;;;;;;;;;;5072713;28;1910;-70
2022/05/30 01:54:08;;;;;;;;;;;;;;;;;;5072474;28;1327;-70
2022/05/30 01:57:06;;;;;;;;;;;;;;;;;;5072594;28;1369;-70
2022/05/30 01:59:40;;;;;;;;;;;;;;;;;;5072608;28;1240;-70
2022/05/30 02:02:26;;;;;;;;;;;;;;;;;;5091281;28;613;-70
2022/05/30 02:04:53;;;;;;;;;;;;;;;;;;5072711;28;1401;-70
2022/05/30 02:07:20;;;;;;;;;;;;;;;;;;5072745;28;935;-70
2022/05/30 02:09:47;;;;;;;;;;;;;;;;;;5072459;28;1571;-70
2022/05/30 02:12:14;;;;;;;;;;;;;;;;;;5072494;28;2023;-71
2022/05/30 02:14:41;;;;;;;;;;;;;;;;;;5090334;28;1459;-70
2022/05/30 02:17:06;;;;;;;;;;;;;;;;;;5072076;28;1522;-69
2022/05/30 02:19:35;;;;;;;;;;;;;;;;;;5072407;28;1358;-70
2022/05/30 02:22:08;;;;;;;;;;;;;;;;;;5071753;28;1407;-70
2022/05/30 02:24:35;;;;;;;;;;;;;;;;;;5090114;28;1310;-70
2022/05/30 02:27:01;;;;;;;;;;;;;;;;;;5088590;28;2587;-70
2022/05/30 02:29:27;;;;;;;;;;;;;;;;;;5082252;28;1432;-70
2022/05/30 02:31:58;;;;;;;;;;;;;;;;;;5089981;28;1910;-70
2022/05/30 02:37:10;;;;;;;;;;;;;;;;;;5092574;28;1194;-70
2022/05/30 02:39:38;;;;;;;;;;;;;;;;;;5092791;28;1204;-70
2022/05/30 02:42:05;;;;;;;;;;;;;;;;;;5110889;28;837;-69
2022/05/30 02:44:35;;;;;;;;;;;;;;;;;;5085863;28;1472;-70
2022/05/30 02:47:01;;;;;;;;;;;;;;;;;;5072118;28;1195;-69
2022/05/30 02:49:28;;;;;;;;;;;;;;;;;;5071893;28;1292;-70
2022/05/30 02:51:55;;;;;;;;;;;;;;;;;;5072233;28;1976;-70
2022/05/30 02:54:23;;;;;;;;;;;;;;;;;;5072056;28;1664;-69
2022/05/30 02:57:08;;;;;;;;;;;;;;;;;;5090329;28;637;-70
2022/05/30 02:59:36;;;;;;;;;;;;;;;;;;5088789;28;1258;-69
2022/05/30 03:02:06;;;;;;;;;;;;;;;;;;5072125;28;1198;-70
2022/05/30 03:04:32;;;;;;;;;;;;;;;;;;5071798;28;1331;-69
2022/05/30 03:07:05;;;;;;;;;;;;;;;;;;5088775;28;1519;-69
2022/05/30 03:09:32;;;;;;;;;;;;;;;;;;5072248;28;1372;-69
2022/05/30 03:12:16;;;;;;;;;;;;;;;;;;5088748;28;1975;-69
2022/05/30 03:14:42;;;;;;;;;;;;;;;;;;5071901;28;1347;-70
2022/05/30 03:17:10;;;;;;;;;;;;;;;;;;5088646;28;1436;-69
2022/05/30 03:19:39;;;;;;;;;;;;;;;;;;5071906;28;1395;-70
2022/05/30 03:22:06;;;;;;;;;;;;;;;;;;5091804;28;1279;-69
2022/05/30 03:24:46;;;;;;;;;;;;;;;;;;5091730;28;1332;-69
2022/05/30 03:27:12;;;;;;;;;;;;;;;;;;5091986;28;830;-70
2022/05/30 03:29:38;;;;;;;;;;;;;;;;;;5092179;28;1374;-70
2022/05/30 03:32:05;;;;;;;;;;;;;;;;;;5069201;22;3669;-72
2022/05/30 03:34:31;;;;;;;;;;;;;;;;;;5031547;28;1368;-72
2022/05/30 03:36:58;;;;;;;;;;;;;;;;;;5032011;28;1204;-71
2022/05/30 03:39:36;;;;;;;;;;;;;;;;;;5032253;28;996;-71
2022/05/30 03:42:22;;;;;;;;;;;;;;;;;;5033709;28;1442;-71
2022/05/30 03:44:57;;;;;;;;;;;;;;;;;;5031987;28;1114;-72
2022/05/30 03:47:23;;;;;;;;;;;;;;;;;;5031913;28;1117;-71
2022/05/30 03:49:49;;;;;;;;;;;;;;;;;;5032044;28;1455;-71
2022/05/30 03:52:17;;;;;;;;;;;;;;;;;;5031765;28;1948;-71
2022/05/30 03:54:43;;;;;;;;;;;;;;;;;;5031775;28;1597;-71
2022/05/30 03:57:09;;;;;;;;;;;;;;;;;;5031695;28;1156;-70
2022/05/30 03:59:37;;;;;;;;;;;;;;;;;;5031749;28;1208;-71
2022/05/30 04:02:03;;;;;;;;;;;;;;;;;;5031656;28;1333;-71
2022/05/30 04:04:30;;;;;;;;;;;;;;;;;;5031815;28;1184;-71
2022/05/30 04:06:57;;;;;;;;;;;;;;;;;;5029789;28;2024;-70
2022/05/30 04:09:24;;;;;;;;;;;;;;;;;;5029952;28;2162;-71
2022/05/30 04:12:09;;;;;;;;;;;;;;;;;;5030322;28;1958;-72
2022/05/30 04:15:13;;;;;;;;;;;;;;;;;;5031437;28;1863;-71
2022/05/30 04:17:40;;;;;;;;;;;;;;;;;;5032244;28;1289;-73
2022/05/30 04:20:06;;;;;;;;;;;;;;;;;;5031435;28;1515;-73
2022/05/30 04:22:32;;;;;;;;;;;;;;;;;;5031213;28;1502;-73
2022/05/30 04:25:17;;;;;;;;;;;;;;;;;;5032709;28;666;-73
2022/05/30 04:27:43;;;;;;;;;;;;;;;;;;5032562;28;925;-72
2022/05/30 04:30:10;;;;;;;;;;;;;;;;;;5031277;28;1200;-73
2022/05/30 04:32:48;;;;;;;;;;;;;;;;;;5030944;28;1986;-72
2022/05/30 04:35:16;;;;;;;;;;;;;;;;;;5031270;28;1262;-72
2022/05/30 04:37:42;;;;;;;;;;;;;;;;;;5030926;28;2989;-72
2022/05/30 04:40:22;;;;;;;;;;;;;;;;;;5031181;28;1501;-72
2022/05/30 04:43:07;;;;;;;;;;;;;;;;;;5032594;28;624;-72
2022/05/30 04:46:03;;;;;;;;;;;;;;;;;;5031458;28;761;-73
2022/05/30 04:48:38;;;;;;;;;;;;;;;;;;5031093;28;960;-73
2022/05/30 04:51:05;;;;;;;;;;;;;;;;;;5030481;28;1568;-72
2022/05/30 04:53:31;;;;;;;;;;;;;;;;;;5030838;28;1975;-72
2022/05/30 04:56:07;;;;;;;;;;;;;;;;;;5031845;28;811;-71
2022/05/30 04:58:56;;;;;;;;;;;;;;;;;;5030654;28;1200;-72
2022/05/30 05:01:24;;;;;;;;;;;;;;;;;;5030865;28;1447;-73
2022/05/30 05:03:51;;;;;;;;;;;;;;;;;;5030616;28;1374;-72
2022/05/30 05:06:18;;;;;;;;;;;;;;;;;;5030059;28;1293;-73
2022/05/30 05:08:48;;;;;;;;;;;;;;;;;;5030629;28;1544;-73
2022/05/30 05:11:34;;;;;;;;;;;;;;;;;;5032066;28;1977;-73
2022/05/30 05:14:18;;;;;;;;;;;;;;;;;;5031950;28;712;-73
2022/05/30 05:17:17;;;;;;;;;;;;;;;;;;5008526;28;1164;-72
2022/05/30 05:19:47;;;;;;;;;;;;;;;;;;5030376;28;1566;-73
2022/05/30 05:22:14;;;;;;;;;;;;;;;;;;5029949;28;1477;-72
2022/05/30 05:24:41;;;;;;;;;;;;;;;;;;5030570;28;1673;-71
2022/05/30 05:27:26;;;;;;;;;;;;;;;;;;5031302;28;592;-71
2022/05/30 05:29:53;;;;;;;;;;;;;;;;;;5030248;28;1385;-73
2022/05/30 05:32:19;;;;;;;;;;;;;;;;;;5029942;28;1910;-73
2022/05/30 05:34:50;;;;;;;;;;;;;;;;;;5031513;28;831;-73
2022/05/30 05:37:18;;;;;;;;;;;;;;;;;;5029891;28;1312;-73
2022/05/30 05:39:50;;;;;;;;;;;;;;;;;;5029925;28;1391;-72
2022/05/30 05:42:16;;;;;;;;;;;;;;;;;;5029858;28;1412;-73
2022/05/30 05:44:43;;;;;;;;;;;;;;;;;;5029684;28;1501;-72
2022/05/30 05:47:09;;;;;;;;;;;;;;;;;;5029489;28;1454;-72
2022/05/30 05:49:37;;;;;;;;;;;;;;;;;;5029851;28;1439;-71
2022/05/30 05:52:05;;;;;;;;;;;;;;;;;;5029472;28;1914;-72
2022/05/30 05:54:32;;;;;;;;;;;;;;;;;;5029741;28;1412;-72
2022/05/30 05:57:01;;;;;;;;;;;;;;;;;;5028989;28;1377;-72
2022/05/30 05:59:32;;;;;;;;;;;;;;;;;;5029721;28;1466;-73
2022/05/30 06:01:59;;;;;;;;;;;;;;;;;;5029381;28;1434;-72
2022/05/30 06:04:25;;;;;;;;;;;;;;;;;;5029476;28;1527;-73
2022/05/30 06:07:25;;;;;;;;;;;;;;;;;;5030589;28;1108;-72
2022/05/30 06:10:08;;;;;;;;;;;;;;;;;;5029464;28;1527;-73
2022/05/30 06:12:42;;;;;;;;;;;;;;;;;;5029547;28;1919;-72
2022/05/30 06:15:09;;;;;;;;;;;;;;;;;;5029561;28;1097;-72
2022/05/30 06:17:45;;;;;;;;;;;;;;;;;;5029266;28;1213;-71
2022/05/30 06:20:13;;;;;;;;;;;;;;;;;;5046398;28;1611;-72
2022/05/30 06:22:41;;;;;;;;;;;;;;;;;;5029896;28;1385;-71
2022/05/30 06:25:23;;;;;;;;;;;;;;;;;;5031871;28;1245;-72
2022/05/30 06:28:15;;;;;;;;;;;;;;;;;;5033802;28;983;-72
2022/05/30 06:30:53;;;;;;;;;;;;;;;;;;5030268;28;1454;-71
2022/05/30 06:33:19;;;;;;;;;;;;;;;;;;5029365;28;1922;-71
2022/05/30 06:35:50;;;;;;;;;;;;;;;;;;5029226;28;1388;-71
2022/05/30 06:38:20;;;;;;;;;;;;;;;;;;5028826;28;1574;-72
2022/05/30 06:40:50;;;;;;;;;;;;;;;;;;5028972;28;1845;-71
2022/05/30 06:43:18;;;;;;;;;;;;;;;;;;5028952;28;1331;-71
2022/05/30 06:46:03;;;;;;;;;;;;;;;;;;5030656;28;1001;-72
2022/05/30 06:49:07;;;;;;;;;;;;;;;;;;5030257;28;820;-71
2022/05/30 06:51:40;;;;;;;;;;;;;;;;;;5029242;28;1600;-71
2022/05/30 06:54:09;;;;;;;;;;;;;;;;;;5028895;28;1977;-72
2022/05/30 06:56:37;;;;;;;;;;;;;;;;;;5028852;28;970;-72
2022/05/30 06:59:04;;;;;;;;;;;;;;;;;;5030327;28;779;-71
2022/05/30 07:01:31;;;;;;;;;;;;;;;;;;5029035;28;1423;-72
2022/05/30 07:04:16;;;;;;;;;;;;;;;;;;5030773;28;626;-72
2022/05/30 07:07:03;;;;;;;;;;;;;;;;;;5029848;28;658;-71
2022/05/30 07:09:51;;;;;;;;;;;;;;;;;;5022379;28;1220;-71
2022/05/30 07:12:43;;;;;;;;;;;;;;;;;;5032618;28;1918;-71
2022/05/30 07:15:11;;;;;;;;;;;;;;;;;;5032724;28;1281;-71
2022/05/30 07:17:37;;;;;;;;;;;;;;;;;;5033908;28;763;-71
2022/05/30 07:20:04;;;;;;;;;;;;;;;;;;5033472;28;818;-72
2022/05/30 07:22:50;;;;;;;;;;;;;;;;;;5028701;28;1840;-72
2022/05/30 07:25:36;;;;;;;;;;;;;;;;;;5032983;28;2050;-72
2022/05/30 07:28:29;;;;;;;;;;;;;;;;;;5023318;28;1882;-72
2022/05/30 07:31:15;;;;;;;;;;;;;;;;;;5025882;28;1450;-71
2022/05/30 07:33:59;;;;;;;;;;;;;;;;;;5033659;28;1910;-72
2022/05/30 07:36:44;;;;;;;;;;;;;;;;;;5033381;28;723;-72
2022/05/30 07:39:21;;;;;;;;;;;;;;;;;;5033843;28;854;-72
2022/05/30 07:42:06;;;;;;;;;;;;;;;;;;5032068;28;1688;-72
2022/05/30 07:44:49;;;;;;;;;;;;;;;;;;5032107;28;1346;-72
2022/05/30 07:47:24;;;;;;;;;;;;;;;;;;5031998;28;1427;-72
2022/05/30 07:50:06;;;;;;;;;;;;;;;;;;5032039;28;1281;-72
2022/05/30 07:52:44;;;;;;;;;;;;;;;;;;5031796;28;1914;-72
2022/05/30 07:55:16;;;;;;;;;;;;;;;;;;5032995;28;829;-72
2022/05/30 07:57:53;;;;;;;;;;;;;;;;;;5031870;28;1180;-72
2022/05/30 08:00:27;;;;;;;;;;;;;;;;;;5031983;28;1547;-72
2022/05/30 08:03:00;;;;;;;;;;;;;;;;;;5031853;28;1562;-72
2022/05/30 08:05:30;;;;;;;;;;;;;;;;;;5031995;28;1318;-72
2022/05/30 08:08:15;;;;;;;;;;;;;;;;;;5033080;28;701;-72
2022/05/30 08:10:49;;;;;;;;;;;;;;;;;;5031528;28;1328;-71
2022/05/30 08:13:17;;;;;;;;;;;;;;;;;;5031573;28;1981;-72
2022/05/30 08:15:47;;;;;;;;;;;;;;;;;;5048401;28;1499;-72
2022/05/30 08:18:25;;;;;;;;;;;;;;;;;;5051246;28;1596;-72
2022/05/30 08:20:55;;;;;;;;;;;;;;;;;;5046363;28;1459;-71
2022/05/30 08:23:23;;;;;;;;;;;;;;;;;;5031471;28;1748;-72
2022/05/30 08:25:50;;;;;;;;;;;;;;;;;;5031212;28;1421;-72
2022/05/30 08:28:20;;;;;;;;;;;;;;;;;;5028697;28;2175;-70
2022/05/30 08:30:46;;;;;;;;;;;;;;;;;;5024760;28;2107;-71
2022/05/30 08:33:39;;;;;;;;;;;;;;;;;;5023467;28;1922;-71
2022/05/30 08:36:08;;;;;;;;;;;;;;;;;;5051826;28;865;-71
2022/05/30 08:38:36;;;;;;;;;;;;;;;;;;5051208;28;1301;-70
2022/05/30 08:43:55;;;;;;;;;;;;;;;;;;5051147;28;1489;-71
2022/05/30 08:47:00;;;;;;;;;;;;;;;;;;5050782;28;1241;-72
2022/05/30 08:49:28;;;;;;;;;;;;;;;;;;5051111;28;1553;-72
2022/05/30 08:52:15;;;;;;;;;;;;;;;;;;5050793;28;1576;-71
2022/05/30 08:54:44;;;;;;;;;;;;;;;;;;5050336;28;1996;-70
2022/05/30 08:57:36;;;;;;;;;;;;;;;;;;5052040;28;1474;-71
2022/05/30 09:00:10;;;;;;;;;;;;;;;;;;5050521;28;1500;-71
2022/05/30 09:02:55;;;;;;;;;;;;;;;;;;5050746;28;1455;-69
2022/05/30 09:05:23;;;;;;;;;;;;;;;;;;5050669;28;1345;-71
2022/05/30 09:07:55;;;;;;;;;;;;;;;;;;5050398;28;1175;-71
2022/05/30 09:10:23;;;;;;;;;;;;;;;;;;5050409;28;1553;-71
2022/05/30 09:12:51;;;;;;;;;;;;;;;;;;5050229;28;1976;-71
2022/05/30 09:15:35;;;;;;;;;;;;;;;;;;5050566;28;1228;-72
2022/05/30 09:18:05;;;;;;;;;;;;;;;;;;5049964;28;1074;-72
2022/05/30 09:20:32;;;;;;;;;;;;;;;;;;5050463;28;1285;-72
2022/05/30 09:23:01;;;;;;;;;;;;;;;;;;5050036;28;1026;-71
2022/05/30 09:28:36;;;;;;;;;;;;;;;;;;5051025;28;1057;-72
2022/05/30 09:31:25;;;;;;;;;;;;;;;;;;5050953;28;1276;-72
2022/05/30 09:34:30;;;;;;;;;;;;;;;;;;5054491;22;2503;-73
2022/05/30 09:37:23;;;;;;;;;;;;;;;;;;5033677;28;908;-73
2022/05/30 09:39:58;;;;;;;;;;;;;;;;;;5047886;28;1353;-73
2022/05/30 09:42:27;;;;;;;;;;;;;;;;;;5032898;28;1372;-74
2022/05/30 09:44:56;;;;;;;;;;;;;;;;;;5033001;28;1405;-74
2022/05/30 09:47:59;;;;;;;;;;;;;;;;;;5050567;28;1038;-73
2022/05/30 09:50:36;;;;;;;;;;;;;;;;;;5032925;28;1197;-74
2022/05/30 09:53:03;;;;;;;;;;;;;;;;;;5032069;28;1917;-73
2022/05/30 09:55:31;;;;;;;;;;;;;;;;;;5032554;28;1191;-73
2022/05/30 09:58:00;;;;;;;;;;;;;;;;;;5032676;28;1513;-73
2022/05/30 10:00:55;;;;;;;;;;;;;;;;;;5046618;28;1162;-74
2022/05/30 10:03:28;;;;;;;;;;;;;;;;;;5032419;28;1353;-73
2022/05/30 10:06:12;;;;;;;;;;;;;;;;;;5022646;28;1480;-74
2022/05/30 10:08:39;;;;;;;;;;;;;;;;;;5012808;28;842;-73
2022/05/30 10:11:09;;;;;;;;;;;;;;;;;;5012640;28;1367;-74
2022/05/30 10:13:39;;;;;;;;;;;;;;;;;;5012501;28;1930;-73
2022/05/30 10:16:30;;;;;;;;;;;;;;;;;;5028775;28;1329;-72
2022/05/30 10:18:57;;;;;;;;;;;;;;;;;;5012756;28;1291;-71
2022/05/30 10:21:27;;;;;;;;;;;;;;;;;;5012595;28;1645;-74
2022/05/30 10:30:30;;;;;;;;;;;;;;;;;;5029478;28;1133;-74
2022/05/30 10:33:25;;;;;;;;;;;;;;;;;;5029562;28;1975;-73
2022/05/30 10:35:55;;;;;;;;;;;;;;;;;;5012468;28;1148;-74
2022/05/30 10:38:22;;;;;;;;;;;;;;;;;;5012234;28;1296;-74
2022/05/30 10:40:49;;;;;;;;;;;;;;;;;;5012591;28;1450;-74
2022/05/30 10:43:17;;;;;;;;;;;;;;;;;;5013238;28;1427;-73
2022/05/30 10:45:45;;;;;;;;;;;;;;;;;;5016470;28;1178;-74
2022/05/30 10:48:16;;;;;;;;;;;;;;;;;;5033704;28;819;-73
2022/05/30 10:50:46;;;;;;;;;;;;;;;;;;5016347;28;1379;-75
2022/05/30 10:53:19;;;;;;;;;;;;;;;;;;5016033;28;1914;-75
2022/05/30 10:56:24;;;;;;;;;;;;;;;;;;5033596;28;989;-73
2022/05/30 10:58:53;;;;;;;;;;;;;;;;;;5016290;28;1311;-73
2022/05/30 11:01:29;;;;;;;;;;;;;;;;;;5016130;28;1328;-72
2022/05/30 11:04:00;;;;;;;;;;;;;;;;;;5016254;28;1343;-73
2022/05/30 11:06:27;;;;;;;;;;;;;;;;;;5015463;28;1512;-73
2022/05/30 11:08:59;;;;;;;;;;;;;;;;;;5016124;28;1414;-73
2022/05/30 11:11:27;;;;;;;;;;;;;;;;;;5034193;28;791;-73
2022/05/30 11:14:09;;;;;;;;;;;;;;;;;;5015821;28;1967;-73
2022/05/30 11:16:48;;;;;;;;;;;;;;;;;;5033659;28;831;-73
2022/05/30 11:19:34;;;;;;;;;;;;;;;;;;5034131;28;749;-73
2022/05/30 11:22:20;;;;;;;;;;;;;;;;;;5015338;28;1343;-73
2022/05/30 11:24:49;;;;;;;;;;;;;;;;;;5033517;28;1377;-72
2022/05/30 11:27:19;;;;;;;;;;;;;;;;;;5033209;28;1067;-73
2022/05/30 11:29:50;;;;;;;;;;;;;;;;;;5033638;28;1144;-73
2022/05/30 11:32:21;;;;;;;;;;;;;;;;;;5033247;28;1111;-74
2022/05/30 11:34:51;;;;;;;;;;;;;;;;;;5033183;28;1958;-73
2022/05/30 11:37:32;;;;;;;;;;;;;;;;;;5033093;28;1076;-74
2022/05/30 11:40:03;;;;;;;;;;;;;;;;;;5029696;28;1011;-74
2022/05/30 11:42:31;;;;;;;;;;;;;;;;;;5033195;28;1108;-73
2022/05/30 11:44:59;;;;;;;;;;;;;;;;;;5033018;28;1459;-73
2022/05/30 11:47:28;;;;;;;;;;;;;;;;;;5032855;28;1020;-72
2022/05/30 11:49:56;;;;;;;;;;;;;;;;;;5033011;28;1068;-73
2022/05/30 11:52:25;;;;;;;;;;;;;;;;;;5032812;28;1131;-73
2022/05/30 11:54:55;;;;;;;;;;;;;;;;;;5014542;28;1910;-73
2022/05/30 11:57:24;;;;;;;;;;;;;;;;;;5014702;28;1428;-73
2022/05/30 11:59:57;;;;;;;;;;;;;;;;;;5032905;28;945;-73
2022/05/30 12:02:24;;;;;;;;;;;;;;;;;;5033152;28;764;-74
2022/05/30 12:05:08;;;;;;;;;;;;;;;;;;5032520;28;1480;-73
2022/05/30 12:07:44;;;;;;;;;;;;;;;;;;4993354;28;1273;-73
2022/05/30 12:10:14;;;;;;;;;;;;;;;;;;5032761;28;933;-73
2022/05/30 12:12:43;;;;;;;;;;;;;;;;;;5015617;28;1139;-73
2022/05/30 12:15:14;;;;;;;;;;;;;;;;;;5033370;28;1910;-73
2022/05/30 12:26:03;;;;;;;;;;;;;;;;;;5032430;28;877;-73
2022/05/30 12:29:02;;;;;;;;;;;;;;;;;;5032133;28;1119;-73
2022/05/30 12:31:37;;;;;;;;;;;;;;;;;;4951844;29;1097;-74
2022/05/30 12:34:05;;;;;;;;;;;;;;;;;;4935277;29;1919;-76
2022/05/30 12:36:32;;;;;;;;;;;;;;;;;;4991363;28;1132;-73
2022/05/30 12:38:58;;;;;;;;;;;;;;;;;;5014382;28;835;-74
2022/05/30 12:41:26;;;;;;;;;;;;;;;;;;5032183;28;1123;-74
2022/05/30 12:43:52;;;;;;;;;;;;;;;;;;5032060;28;1292;-73
2022/05/30 12:46:20;;;;;;;;;;;;;;;;;;5031876;28;1053;-73
2022/05/30 12:49:17;;;;;;;;;;;;;;;;;;5031919;28;898;-73
2022/05/30 12:52:01;;;;;;;;;;;;;;;;;;4951664;29;1065;-73
2022/05/30 12:54:44;;;;;;;;;;;;;;;;;;5021691;28;1967;-74
2022/05/30 12:57:37;;;;;;;;;;;;;;;;;;5031558;28;843;-74
2022/05/30 13:00:22;;;;;;;;;;;;;;;;;;5031924;28;1071;-73
2022/05/30 13:02:56;;;;;;;;;;;;;;;;;;5031425;28;1400;-73
2022/05/30 13:05:24;;;;;;;;;;;;;;;;;;5031023;28;1064;-73
2022/05/30 13:07:51;;;;;;;;;;;;;;;;;;5030879;28;961;-74
2022/05/30 13:10:17;;;;;;;;;;;;;;;;;;5031267;28;1056;-73
2022/05/30 13:12:53;;;;;;;;;;;;;;;;;;5031530;28;957;-74
2022/05/30 13:15:24;;;;;;;;;;;;;;;;;;5030997;28;1910;-73
2022/05/30 13:18:03;;;;;;;;;;;;;;;;;;5031150;28;849;-73
2022/05/30 13:20:30;;;;;;;;;;;;;;;;;;5031765;28;872;-72
2022/05/30 13:22:59;;;;;;;;;;;;;;;;;;5031863;28;1292;-73
2022/05/30 13:25:28;;;;;;;;;;;;;;;;;;5031090;28;961;-73
2022/05/30 13:27:55;;;;;;;;;;;;;;;;;;5030998;28;910;-73
2022/05/30 13:30:22;;;;;;;;;;;;;;;;;;5031130;28;891;-75
2022/05/30 13:32:49;;;;;;;;;;;;;;;;;;5030779;28;1393;-72
2022/05/30 13:35:15;;;;;;;;;;;;;;;;;;5013284;28;1914;-74
2022/05/30 13:37:43;;;;;;;;;;;;;;;;;;5030658;28;893;-73
2022/05/30 13:40:12;;;;;;;;;;;;;;;;;;5030730;28;1080;-73
2022/05/30 13:42:49;;;;;;;;;;;;;;;;;;5031033;28;1048;-73
2022/05/30 13:45:16;;;;;;;;;;;;;;;;;;5030897;28;881;-73
2022/05/30 13:47:42;;;;;;;;;;;;;;;;;;5030988;28;1021;-73
2022/05/30 13:50:09;;;;;;;;;;;;;;;;;;5030869;28;1075;-74
2022/05/30 13:52:36;;;;;;;;;;;;;;;;;;5013018;28;1345;-73
2022/05/30 13:55:05;;;;;;;;;;;;;;;;;;5030593;28;1895;-73
2022/05/30 13:57:32;;;;;;;;;;;;;;;;;;5029899;28;1475;-73
2022/05/30 14:00:00;;;;;;;;;;;;;;;;;;5030759;28;1067;-74
2022/05/30 14:02:26;;;;;;;;;;;;;;;;;;5030517;28;1080;-73
2022/05/30 14:04:55;;;;;;;;;;;;;;;;;;5031031;28;1363;-73
2022/05/30 14:07:21;;;;;;;;;;;;;;;;;;5030267;28;938;-73
2022/05/30 14:09:48;;;;;;;;;;;;;;;;;;5030684;28;984;-73
2022/05/30 14:12:14;;;;;;;;;;;;;;;;;;5030349;28;938;-72
2022/05/30 14:14:43;;;;;;;;;;;;;;;;;;5030210;28;1979;-73
2022/05/30 14:17:10;;;;;;;;;;;;;;;;;;5030204;28;1068;-73
2022/05/30 14:19:37;;;;;;;;;;;;;;;;;;5030535;28;1068;-73
2022/05/30 14:22:08;;;;;;;;;;;;;;;;;;5030472;28;934;-72
2022/05/30 14:24:35;;;;;;;;;;;;;;;;;;5030281;28;1320;-73
2022/05/30 14:27:02;;;;;;;;;;;;;;;;;;5030107;28;1088;-76
2022/05/30 14:29:30;;;;;;;;;;;;;;;;;;5026523;28;1836;-75
2022/05/30 14:32:06;;;;;;;;;;;;;;;;;;5023215;28;1557;-73
2022/05/30 14:34:33;;;;;;;;;;;;;;;;;;5041657;28;1978;-75
2022/05/30 14:36:59;;;;;;;;;;;;;;;;;;5031796;28;1671;-76
2022/05/30 14:39:26;;;;;;;;;;;;;;;;;;5050083;28;1068;-75
2022/05/30 14:41:55;;;;;;;;;;;;;;;;;;5049853;28;1089;-76
2022/05/30 14:44:21;;;;;;;;;;;;;;;;;;5049810;28;1383;-75
2022/05/30 14:46:48;;;;;;;;;;;;;;;;;;5031943;28;1108;-76
2022/05/30 14:49:16;;;;;;;;;;;;;;;;;;5050064;28;1001;-76
2022/05/30 14:51:49;;;;;;;;;;;;;;;;;;5050051;28;1052;-75
2022/05/30 14:54:16;;;;;;;;;;;;;;;;;;5049549;28;1906;-75
2022/05/30 14:56:43;;;;;;;;;;;;;;;;;;5049396;28;859;-75
2022/05/30 14:59:12;;;;;;;;;;;;;;;;;;5050003;28;1250;-75
2022/05/30 15:01:40;;;;;;;;;;;;;;;;;;5050719;28;768;-75
2022/05/30 15:04:06;;;;;;;;;;;;;;;;;;5050584;28;1305;-75
2022/05/30 15:06:37;;;;;;;;;;;;;;;;;;5050532;28;924;-76
2022/05/30 15:09:04;;;;;;;;;;;;;;;;;;5049830;28;697;-75
2022/05/30 15:11:30;;;;;;;;;;;;;;;;;;5050218;28;973;-76
2022/05/30 15:13:58;;;;;;;;;;;;;;;;;;5045728;28;2023;-76
2022/05/30 15:16:24;;;;;;;;;;;;;;;;;;5029437;28;1914;-76
2022/05/30 15:18:51;;;;;;;;;;;;;;;;;;5028504;28;1187;-76
2022/05/30 15:21:19;;;;;;;;;;;;;;;;;;5029625;28;1076;-76
2022/05/30 15:23:47;;;;;;;;;;;;;;;;;;5028278;28;1336;-74
2022/05/30 15:26:13;;;;;;;;;;;;;;;;;;5029363;28;1064;-76
2022/05/30 15:28:40;;;;;;;;;;;;;;;;;;5029898;28;1021;-74
2022/05/30 15:31:07;;;;;;;;;;;;;;;;;;5031971;28;1392;-75
2022/05/30 15:33:33;;;;;;;;;;;;;;;;;;5032952;28;1320;-75
2022/05/30 15:36:00;;;;;;;;;;;;;;;;;;5033237;28;1984;-75
2022/05/30 15:38:26;;;;;;;;;;;;;;;;;;5064701;22;3555;-68
2022/05/30 15:40:54;;;;;;;;;;;;;;;;;;5073239;28;1067;-69
2022/05/30 15:43:20;;;;;;;;;;;;;;;;;;5073222;28;838;-70
2022/05/30 15:45:46;;;;;;;;;;;;;;;;;;5072974;28;1031;-71
2022/05/30 15:48:12;;;;;;;;;;;;;;;;;;5072557;28;1320;-70
2022/05/30 15:50:39;;;;;;;;;;;;;;;;;;5072581;28;870;-71
2022/05/30 15:58:34;;;;;;;;;;;;;;;;;;5034882;28;1453;-70
2022/05/30 16:01:01;;;;;;;;;;;;;;;;;;5052760;28;1063;-70
2022/05/30 16:03:27;;;;;;;;;;;;;;;;;;5052681;28;1091;-71
2022/05/30 16:05:53;;;;;;;;;;;;;;;;;;5052461;28;1123;-72
2022/05/30 16:08:20;;;;;;;;;;;;;;;;;;5052194;28;1370;-71
2022/05/30 16:10:47;;;;;;;;;;;;;;;;;;5052735;28;866;-70
2022/05/30 16:13:14;;;;;;;;;;;;;;;;;;5052564;28;1119;-71
2022/05/30 16:15:42;;;;;;;;;;;;;;;;;;5052497;28;1984;-70
2022/05/30 16:18:08;;;;;;;;;;;;;;;;;;5052334;28;1274;-71
2022/05/30 16:20:34;;;;;;;;;;;;;;;;;;5052454;28;1128;-70
2022/05/30 16:23:00;;;;;;;;;;;;;;;;;;5051916;28;1064;-69
2022/05/30 16:25:27;;;;;;;;;;;;;;;;;;5052405;28;1123;-72
2022/05/30 16:27:54;;;;;;;;;;;;;;;;;;5051626;28;1258;-71
2022/05/30 16:30:20;;;;;;;;;;;;;;;;;;5034311;28;1257;-70
2022/05/30 16:32:48;;;;;;;;;;;;;;;;;;5052126;28;1080;-71
2022/05/30 16:35:15;;;;;;;;;;;;;;;;;;5052012;28;1916;-70
2022/05/30 16:37:42;;;;;;;;;;;;;;;;;;5051917;28;1384;-71
2022/05/30 16:40:09;;;;;;;;;;;;;;;;;;5051379;28;1056;-71
2022/05/30 16:42:35;;;;;;;;;;;;;;;;;;5033525;28;1140;-71
2022/05/30 16:45:01;;;;;;;;;;;;;;;;;;5052030;28;1079;-69
2022/05/30 16:47:28;;;;;;;;;;;;;;;;;;5050859;28;1251;-70
2022/05/30 16:49:56;;;;;;;;;;;;;;;;;;5051937;28;891;-70
2022/05/30 16:52:25;;;;;;;;;;;;;;;;;;5051600;28;993;-70
2022/05/30 16:54:52;;;;;;;;;;;;;;;;;;5051685;28;1914;-70
2022/05/30 16:57:19;;;;;;;;;;;;;;;;;;5051408;28;1274;-70
2022/05/30 16:59:45;;;;;;;;;;;;;;;;;;5051742;28;1083;-70
2022/05/30 17:02:12;;;;;;;;;;;;;;;;;;5051193;28;867;-70
2022/05/30 17:04:38;;;;;;;;;;;;;;;;;;5051522;28;871;-70
2022/05/30 17:07:06;;;;;;;;;;;;;;;;;;5051172;28;1290;-70
2022/05/30 17:09:32;;;;;;;;;;;;;;;;;;5051304;28;1064;-70
2022/05/30 17:11:58;;;;;;;;;;;;;;;;;;5051176;28;1068;-70
2022/05/30 17:14:25;;;;;;;;;;;;;;;;;;5051411;28;885;-70
2022/05/30 17:16:51;;;;;;;;;;;;;;;;;;5050919;28;1975;-70
2022/05/30 17:19:17;;;;;;;;;;;;;;;;;;5051379;28;1132;-70
2022/05/30 17:21:43;;;;;;;;;;;;;;;;;;5051017;28;1123;-70
2022/05/30 17:24:11;;;;;;;;;;;;;;;;;;5051211;28;847;-70
2022/05/30 17:29:21;;;;;;;;;;;;;;;;;;5003296;28;1109;-71
2022/05/30 17:31:47;;;;;;;;;;;;;;;;;;5051197;28;1555;-70
2022/05/30 17:34:15;;;;;;;;;;;;;;;;;;5033096;28;985;-70
2022/05/30 17:36:41;;;;;;;;;;;;;;;;;;5050414;28;1914;-70
2022/05/30 17:39:08;;;;;;;;;;;;;;;;;;5050736;28;1080;-71
2022/05/30 17:41:35;;;;;;;;;;;;;;;;;;5051150;28;778;-71
2022/05/30 17:44:03;;;;;;;;;;;;;;;;;;5050909;28;1119;-68
2022/05/30 17:46:31;;;;;;;;;;;;;;;;;;5050693;28;850;-70
2022/05/30 17:49:03;;;;;;;;;;;;;;;;;;5051021;28;1415;-70
2022/05/30 17:51:32;;;;;;;;;;;;;;;;;;5050807;28;862;-70
2022/05/30 17:53:58;;;;;;;;;;;;;;;;;;5050619;28;976;-70
2022/05/30 17:56:25;;;;;;;;;;;;;;;;;;5050152;28;1977;-68
2022/05/30 17:58:53;;;;;;;;;;;;;;;;;;5052933;28;1571;-70
2022/05/30 18:01:19;;;;;;;;;;;;;;;;;;5050476;28;1135;-71
2022/05/30 18:03:45;;;;;;;;;;;;;;;;;;5050493;28;1119;-69
2022/05/30 18:06:13;;;;;;;;;;;;;;;;;;5050145;28;1138;-71
2022/05/30 18:08:40;;;;;;;;;;;;;;;;;;5049399;28;1293;-70